Time;durP1;ratioP1;P1;durP2;ratioP2;P2;SDS_P1;SDS_P2;PMS_P1;PMS_P2;Temp;Humidity;BMP_temperature;BMP_pressure;BME280_temperature;BME280_humidity;BME280_pressure;Samples;Min_cycle;Max_cycle;Signal;HPM_P1;HPM_P2
2023/09/22 00:00:54;;;;;;;5.73;5.33;;;;;;;;;;5011641;28;20260;-58
2023/09/22 00:03:21;;;;;;;5.70;5.20;;;;;;;;;;5011729;28;20197;-58
2023/09/22 00:05:48;;;;;;;5.77;5.30;;;;;;;;;;5011460;28;20764;-57
2023/09/22 00:08:15;;;;;;;5.57;4.97;;;;;;;;;;5011548;28;20235;-57
2023/09/22 00:10:41;;;;;;;5.60;5.20;;;;;;;;;;5007956;28;20270;-57
2023/09/22 00:13:10;;;;;;;6.00;5.50;;;;;;;;;;5011611;28;20210;-57
2023/09/22 00:15:36;;;;;;;5.77;5.27;;;;;;;;;;5011681;28;20686;-56
2023/09/22 00:18:02;;;;;;;6.43;5.83;;;;;;;;;;5011619;28;20620;-56
2023/09/22 00:20:29;;;;;;;6.00;5.50;;;;;;;;;;5011646;28;20221;-55
2023/09/22 00:22:57;;;;;;;6.67;6.10;;;;;;;;;;5011542;28;20738;-55
2023/09/22 00:25:23;;;;;;;5.97;5.47;;;;;;;;;;5011594;28;20276;-55
2023/09/22 00:27:49;;;;;;;6.77;6.17;;;;;;;;;;5013709;28;20221;-55
2023/09/22 00:30:15;;;;;;;7.00;6.50;;;;;;;;;;5015537;28;20228;-55
2023/09/22 00:32:41;;;;;;;6.97;6.47;;;;;;;;;;5014087;28;20243;-55
2023/09/22 00:35:11;;;;;;;6.30;5.70;;;;;;;;;;5015278;28;20217;-55
2023/09/22 00:37:40;;;;;;;6.80;6.10;;;;;;;;;;5015220;28;20241;-55
2023/09/22 00:40:12;;;;;;;6.30;5.80;;;;;;;;;;5015436;28;20210;-55
2023/09/22 00:42:38;;;;;;;6.37;5.77;;;;;;;;;;5015537;28;20225;-55
2023/09/22 00:45:05;;;;;;;7.93;5.90;;;;;;;;;;5015323;28;20225;-58
2023/09/22 00:47:31;;;;;;;6.37;5.77;;;;;;;;;;5015107;28;20299;-55
2023/09/22 00:49:57;;;;;;;6.37;5.77;;;;;;;;;;5015154;28;20249;-55
2023/09/22 00:52:24;;;;;;;6.03;5.53;;;;;;;;;;5015092;28;20286;-56
2023/09/22 00:54:50;;;;;;;7.20;6.50;;;;;;;;;;5015058;28;20261;-55
2023/09/22 00:57:18;;;;;;;7.13;6.47;;;;;;;;;;5015094;28;20741;-55
2023/09/22 00:59:45;;;;;;;6.77;6.20;;;;;;;;;;5014853;28;20217;-55
2023/09/22 01:02:11;;;;;;;6.30;5.73;;;;;;;;;;5014785;28;20807;-55
2023/09/22 01:04:37;;;;;;;6.57;5.97;;;;;;;;;;5014831;28;20295;-55
2023/09/22 01:07:03;;;;;;;7.03;6.33;;;;;;;;;;5014699;28;20213;-55
2023/09/22 01:09:30;;;;;;;7.47;6.87;;;;;;;;;;5014870;28;20202;-55
2023/09/22 01:11:56;;;;;;;7.13;6.53;;;;;;;;;;5014595;28;20208;-55
2023/09/22 01:14:23;;;;;;;6.83;6.33;;;;;;;;;;5014726;28;20201;-55
2023/09/22 01:16:51;;;;;;;7.33;6.73;;;;;;;;;;5014696;28;20217;-55
2023/09/22 01:19:19;;;;;;;7.37;6.77;;;;;;;;;;5014703;28;20201;-55
2023/09/22 01:21:46;;;;;;;7.97;7.27;;;;;;;;;;5014552;28;20202;-55
2023/09/22 01:24:14;;;;;;;7.60;7.00;;;;;;;;;;5014367;28;20205;-55
2023/09/22 01:26:40;;;;;;;7.83;7.03;;;;;;;;;;5014346;28;20229;-55
2023/09/22 01:29:07;;;;;;;8.17;7.47;;;;;;;;;;5014288;28;20212;-55
2023/09/22 01:31:33;;;;;;;9.97;7.50;;;;;;;;;;5014324;28;20280;-55
2023/09/22 01:34:00;;;;;;;7.90;7.10;;;;;;;;;;5014016;28;20288;-55
2023/09/22 01:36:27;;;;;;;6.90;6.40;;;;;;;;;;5013790;28;20770;-55
2023/09/22 01:38:55;;;;;;;7.30;6.70;;;;;;;;;;5013037;28;20257;-55
2023/09/22 01:41:21;;;;;;;7.77;7.07;;;;;;;;;;5014057;28;20206;-55
2023/09/22 01:43:47;;;;;;;8.57;6.80;;;;;;;;;;5014149;28;20199;-55
2023/09/22 01:46:13;;;;;;;7.83;7.23;;;;;;;;;;5014187;28;20193;-55
2023/09/22 01:48:39;;;;;;;7.20;6.57;;;;;;;;;;5014006;28;20638;-55
2023/09/22 01:51:05;;;;;;;7.23;6.57;;;;;;;;;;5014088;28;20205;-55
2023/09/22 01:53:31;;;;;;;6.70;6.20;;;;;;;;;;5013934;28;20756;-55
2023/09/22 01:55:59;;;;;;;7.30;6.70;;;;;;;;;;5013932;28;20232;-55
2023/09/22 01:58:25;;;;;;;8.23;7.40;;;;;;;;;;5013781;28;20194;-55
2023/09/22 02:00:51;;;;;;;7.23;6.53;;;;;;;;;;5013666;28;20225;-55
2023/09/22 02:03:18;;;;;;;7.40;6.70;;;;;;;;;;5013727;28;20206;-55
2023/09/22 02:05:44;;;;;;;7.90;7.20;;;;;;;;;;5013739;28;20207;-55
2023/09/22 02:08:10;;;;;;;8.13;7.33;;;;;;;;;;5013534;28;20312;-55
2023/09/22 02:10:36;;;;;;;6.97;6.37;;;;;;;;;;5013597;28;20201;-55
2023/09/22 02:13:08;;;;;;;6.77;6.13;;;;;;;;;;5013205;28;20198;-55
2023/09/22 02:15:35;;;;;;;6.27;5.67;;;;;;;;;;5013812;28;20208;-55
2023/09/22 02:18:01;;;;;;;6.50;5.30;;;;;;;;;;5013442;28;20204;-55
2023/09/22 02:20:28;;;;;;;5.20;4.57;;;;;;;;;;5013306;28;20198;-55
2023/09/22 02:22:55;;;;;;;5.50;4.43;;;;;;;;;;5013255;28;20201;-55
2023/09/22 02:25:22;;;;;;;4.87;4.20;;;;;;;;;;5013406;28;20229;-55
2023/09/22 02:27:49;;;;;;;4.70;4.20;;;;;;;;;;5013294;28;20263;-55
2023/09/22 02:30:16;;;;;;;4.87;4.20;;;;;;;;;;5013266;28;20205;-55
2023/09/22 02:32:43;;;;;;;4.13;3.73;;;;;;;;;;5013157;28;20202;-55
2023/09/22 02:35:09;;;;;;;3.77;3.47;;;;;;;;;;5013030;28;20211;-55
2023/09/22 02:37:36;;;;;;;4.37;3.67;;;;;;;;;;5013044;28;20233;-55
2023/09/22 02:40:02;;;;;;;3.73;3.40;;;;;;;;;;5013204;28;20231;-55
2023/09/22 02:42:28;;;;;;;3.10;2.77;;;;;;;;;;5013226;28;20206;-55
2023/09/22 02:44:55;;;;;;;3.43;3.00;;;;;;;;;;5012941;28;20201;-55
2023/09/22 02:47:22;;;;;;;2.70;2.50;;;;;;;;;;5012790;28;20253;-55
2023/09/22 02:49:48;;;;;;;2.90;2.63;;;;;;;;;;5012964;28;20300;-55
2023/09/22 02:52:14;;;;;;;2.50;2.30;;;;;;;;;;5012759;28;20553;-55
2023/09/22 02:54:40;;;;;;;2.67;2.47;;;;;;;;;;5012824;28;20194;-55
2023/09/22 02:57:06;;;;;;;3.33;2.40;;;;;;;;;;5012657;28;20219;-55
2023/09/22 02:59:33;;;;;;;3.83;2.90;;;;;;;;;;5012901;28;20220;-55
2023/09/22 03:01:59;;;;;;;3.07;2.63;;;;;;;;;;5012586;28;20636;-55
2023/09/22 03:04:26;;;;;;;3.43;2.60;;;;;;;;;;5012674;28;20296;-55
2023/09/22 03:06:52;;;;;;;2.57;2.37;;;;;;;;;;5012467;28;20574;-55
2023/09/22 03:09:18;;;;;;;2.93;2.60;;;;;;;;;;5012660;28;20201;-55
2023/09/22 03:11:45;;;;;;;3.60;2.40;;;;;;;;;;5012587;28;20225;-55
2023/09/22 03:14:11;;;;;;;2.30;2.10;;;;;;;;;;5012373;28;20289;-55
2023/09/22 03:16:37;;;;;;;2.40;2.20;;;;;;;;;;5012487;28;20280;-55
2023/09/22 03:19:03;;;;;;;3.50;2.33;;;;;;;;;;5012248;28;20214;-55
2023/09/22 03:21:30;;;;;;;3.07;2.00;;;;;;;;;;5012296;28;20205;-55
2023/09/22 03:23:58;;;;;;;2.23;1.90;;;;;;;;;;5012199;28;20205;-56
2023/09/22 03:26:24;;;;;;;2.27;1.90;;;;;;;;;;5012268;28;20208;-55
2023/09/22 03:28:50;;;;;;;2.20;1.80;;;;;;;;;;5012189;28;20205;-55
2023/09/22 03:31:19;;;;;;;2.83;1.80;;;;;;;;;;5011972;28;20699;-55
2023/09/22 03:33:48;;;;;;;2.80;2.10;;;;;;;;;;5012262;28;20200;-55
2023/09/22 03:36:14;;;;;;;2.10;1.77;;;;;;;;;;5012049;28;20233;-55
2023/09/22 03:38:47;;;;;;;3.20;1.97;;;;;;;;;;5012002;28;20276;-55
2023/09/22 03:41:15;;;;;;;2.87;1.90;;;;;;;;;;5012048;28;20198;-55
2023/09/22 03:43:41;;;;;;;2.00;1.80;;;;;;;;;;5012120;28;20205;-55
2023/09/22 03:46:08;;;;;;;3.80;2.00;;;;;;;;;;5012103;28;20197;-55
2023/09/22 03:48:34;;;;;;;2.57;2.00;;;;;;;;;;5011934;28;20688;-55
2023/09/22 03:51:00;;;;;;;3.17;2.20;;;;;;;;;;5011902;28;20803;-55
2023/09/22 03:53:27;;;;;;;2.57;2.23;;;;;;;;;;5012075;28;20256;-55
2023/09/22 03:55:54;;;;;;;2.60;2.40;;;;;;;;;;5011805;28;20205;-55
2023/09/22 03:58:21;;;;;;;2.47;2.27;;;;;;;;;;5012018;28;20197;-55
2023/09/22 04:00:47;;;;;;;2.53;2.23;;;;;;;;;;5011868;28;20198;-55
2023/09/22 04:03:13;;;;;;;3.33;2.17;;;;;;;;;;5017306;28;20212;-55
2023/09/22 04:05:39;;;;;;;2.40;2.20;;;;;;;;;;5018350;28;20212;-55
2023/09/22 04:08:06;;;;;;;2.73;2.27;;;;;;;;;;5018157;28;20830;-55
2023/09/22 04:10:32;;;;;;;3.77;2.77;;;;;;;;;;5018341;28;20669;-55
2023/09/22 04:12:59;;;;;;;3.57;2.90;;;;;;;;;;5018179;28;20623;-55
2023/09/22 04:15:25;;;;;;;5.80;2.90;;;;;;;;;;5018380;28;20576;-55
2023/09/22 04:17:51;;;;;;;3.33;2.70;;;;;;;;;;5018003;28;20861;-55
2023/09/22 04:20:27;;;;;;;3.00;2.60;;;;;;;;;;5018292;28;20205;-55
2023/09/22 04:22:53;;;;;;;2.97;2.70;;;;;;;;;;5018174;28;20204;-55
2023/09/22 04:25:19;;;;;;;3.47;2.70;;;;;;;;;;5018293;28;20296;-55
2023/09/22 04:27:53;;;;;;;3.27;2.97;;;;;;;;;;5018102;28;20588;-55
2023/09/22 04:30:20;;;;;;;4.70;2.50;;;;;;;;;;5018290;28;20248;-55
2023/09/22 04:32:51;;;;;;;3.20;2.90;;;;;;;;;;5018034;28;20206;-55
2023/09/22 04:35:18;;;;;;;3.00;2.70;;;;;;;;;;5018181;28;20221;-55
2023/09/22 04:37:44;;;;;;;3.67;3.30;;;;;;;;;;5018004;28;20229;-55
2023/09/22 04:40:23;;;;;;;3.60;3.17;;;;;;;;;;5018027;28;20213;-55
2023/09/22 04:42:49;;;;;;;4.23;2.97;;;;;;;;;;5018201;28;20263;-55
2023/09/22 04:45:15;;;;;;;4.93;3.20;;;;;;;;;;5017899;28;20206;-55
2023/09/22 04:47:42;;;;;;;3.50;3.20;;;;;;;;;;5017767;28;20218;-55
2023/09/22 04:50:09;;;;;;;3.50;3.20;;;;;;;;;;5017827;28;20205;-55
2023/09/22 04:52:35;;;;;;;3.60;3.30;;;;;;;;;;5017894;28;20197;-55
2023/09/22 04:55:01;;;;;;;4.40;3.70;;;;;;;;;;5017770;28;20197;-55
2023/09/22 04:57:27;;;;;;;4.40;4.00;;;;;;;;;;5017923;28;20185;-55
2023/09/22 04:59:54;;;;;;;3.63;3.33;;;;;;;;;;5017757;28;20668;-55
2023/09/22 05:02:20;;;;;;;3.63;3.33;;;;;;;;;;5018000;28;20209;-55
2023/09/22 05:04:48;;;;;;;5.27;3.43;;;;;;;;;;5017930;28;20196;-55
2023/09/22 05:07:13;;;;;;;3.63;3.33;;;;;;;;;;5017673;28;20201;-55
2023/09/22 05:09:39;;;;;;;3.83;3.40;;;;;;;;;;5017968;28;20747;-55
2023/09/22 05:12:06;;;;;;;3.47;3.17;;;;;;;;;;5017640;28;20193;-55
2023/09/22 05:14:32;;;;;;;3.70;3.30;;;;;;;;;;5014189;28;20292;-55
2023/09/22 05:16:57;;;;;;;4.20;3.80;;;;;;;;;;5014208;28;20276;-55
2023/09/22 05:19:23;;;;;;;4.30;3.90;;;;;;;;;;5013809;28;20613;-55
2023/09/22 05:21:51;;;;;;;5.30;4.80;;;;;;;;;;5014182;28;20197;-55
2023/09/22 05:24:17;;;;;;;5.07;4.53;;;;;;;;;;5014615;28;20216;-55
2023/09/22 05:26:43;;;;;;;5.07;4.57;;;;;;;;;;5013921;28;20202;-55
2023/09/22 05:29:10;;;;;;;6.17;4.83;;;;;;;;;;5013819;28;20229;-55
2023/09/22 05:31:36;;;;;;;5.40;4.93;;;;;;;;;;5013894;28;20202;-55
2023/09/22 05:34:02;;;;;;;5.60;5.10;;;;;;;;;;5013868;28;20212;-55
2023/09/22 05:36:29;;;;;;;6.50;5.77;;;;;;;;;;5013442;28;20225;-55
2023/09/22 05:38:57;;;;;;;5.70;5.30;;;;;;;;;;5013306;28;20287;-55
2023/09/22 05:41:23;;;;;;;5.07;4.57;;;;;;;;;;5013500;28;20216;-55
2023/09/22 05:43:49;;;;;;;5.23;4.83;;;;;;;;;;5013394;28;20259;-55
2023/09/22 05:46:15;;;;;;;6.73;5.40;;;;;;;;;;5013011;28;20198;-54
2023/09/22 05:48:42;;;;;;;6.00;5.50;;;;;;;;;;5012919;28;20267;-54
2023/09/22 05:51:07;;;;;;;5.93;5.33;;;;;;;;;;5012959;28;20267;-54
2023/09/22 05:53:35;;;;;;;6.13;5.63;;;;;;;;;;5013280;28;20193;-54
2023/09/22 05:56:06;;;;;;;6.70;5.97;;;;;;;;;;5013149;28;20277;-54
2023/09/22 05:58:33;;;;;;;6.60;6.10;;;;;;;;;;5013216;28;20210;-54
2023/09/22 06:01:06;;;;;;;7.00;6.27;;;;;;;;;;5012865;28;20201;-57
2023/09/22 06:03:33;;;;;;;6.90;6.27;;;;;;;;;;5013008;28;20205;-55
2023/09/22 06:05:59;;;;;;;7.33;6.67;;;;;;;;;;5012715;28;20259;-54
2023/09/22 06:08:25;;;;;;;6.70;6.10;;;;;;;;;;5012787;28;20229;-55
2023/09/22 06:10:51;;;;;;;7.97;7.27;;;;;;;;;;5012804;28;20200;-55
2023/09/22 06:13:20;;;;;;;7.40;6.70;;;;;;;;;;5013015;28;20198;-54
2023/09/22 06:15:46;;;;;;;7.70;7.00;;;;;;;;;;5012689;28;20212;-54
2023/09/22 06:18:14;;;;;;;7.50;6.80;;;;;;;;;;5012447;28;20209;-54
2023/09/22 06:20:40;;;;;;;7.80;7.10;;;;;;;;;;5012652;28;20595;-55
2023/09/22 06:23:06;;;;;;;8.13;7.47;;;;;;;;;;5012520;28;20205;-55
2023/09/22 06:25:33;;;;;;;7.80;7.13;;;;;;;;;;5012437;28;20201;-54
2023/09/22 06:27:59;;;;;;;8.07;7.27;;;;;;;;;;5012341;28;20307;-55
2023/09/22 06:30:26;;;;;;;7.50;6.80;;;;;;;;;;5012509;28;20281;-55
2023/09/22 06:32:52;;;;;;;7.10;6.60;;;;;;;;;;5012369;28;20293;-54
2023/09/22 06:35:18;;;;;;;7.70;7.00;;;;;;;;;;5012464;28;20312;-54
2023/09/22 06:37:45;;;;;;;8.03;7.33;;;;;;;;;;5012312;28;20244;-55
2023/09/22 06:40:11;;;;;;;8.50;7.70;;;;;;;;;;5012341;28;20221;-55
2023/09/22 06:42:39;;;;;;;8.00;7.27;;;;;;;;;;5012313;28;20241;-55
2023/09/22 06:45:05;;;;;;;7.90;7.20;;;;;;;;;;5012257;28;20205;-54
2023/09/22 06:47:34;;;;;;;6.57;5.90;;;;;;;;;;5012009;28;20217;-58
2023/09/22 06:50:05;;;;;;;6.63;6.03;;;;;;;;;;5011825;28;20617;-60
2023/09/22 06:52:31;;;;;;;6.47;5.97;;;;;;;;;;5012181;28;20208;-57
2023/09/22 06:55:00;;;;;;;6.73;6.13;;;;;;;;;;5011917;28;20268;-49
2023/09/22 06:57:26;;;;;;;8.27;6.03;;;;;;;;;;5012349;28;20207;-47
2023/09/22 06:59:52;;;;;;;7.13;6.43;;;;;;;;;;5012124;28;20210;-47
2023/09/22 07:02:18;;;;;;;6.87;6.20;;;;;;;;;;5012195;28;20248;-48
2023/09/22 07:04:46;;;;;;;6.47;5.80;;;;;;;;;;5012115;28;20263;-48
2023/09/22 07:07:12;;;;;;;5.70;5.00;;;;;;;;;;5011847;28;20923;-48
2023/09/22 07:09:38;;;;;;;5.40;4.90;;;;;;;;;;5012012;28;20202;-48
2023/09/22 07:12:04;;;;;;;6.40;5.80;;;;;;;;;;5012073;28;20205;-48
2023/09/22 07:14:32;;;;;;;6.40;5.80;;;;;;;;;;5012187;28;20208;-48
2023/09/22 07:16:58;;;;;;;5.30;4.90;;;;;;;;;;5011808;28;20216;-48
2023/09/22 07:19:25;;;;;;;6.40;5.80;;;;;;;;;;5011760;28;20627;-48
2023/09/22 07:21:52;;;;;;;7.30;5.63;;;;;;;;;;5011913;28;20641;-49
2023/09/22 07:24:18;;;;;;;6.73;5.43;;;;;;;;;;5011670;28;20296;-47
2023/09/22 07:26:44;;;;;;;6.40;5.80;;;;;;;;;;5011782;28;20236;-47
2023/09/22 07:29:10;;;;;;;6.60;5.87;;;;;;;;;;5011546;28;20228;-47
2023/09/22 07:31:37;;;;;;;6.50;5.27;;;;;;;;;;5011644;28;20193;-47
2023/09/22 07:34:03;;;;;;;6.70;5.17;;;;;;;;;;5011631;28;20547;-48
2023/09/22 07:36:29;;;;;;;5.47;4.70;;;;;;;;;;5010990;28;20209;-55
2023/09/22 07:38:57;;;;;;;5.40;4.57;;;;;;;;;;5011483;28;20714;-55
2023/09/22 07:41:23;;;;;;;5.47;4.53;;;;;;;;;;5008293;28;20208;-54
2023/09/22 07:43:52;;;;;;;5.47;4.83;;;;;;;;;;5005049;28;20263;-55
2023/09/22 07:46:18;;;;;;;6.90;4.77;;;;;;;;;;5011121;28;20288;-53
2023/09/22 07:48:45;;;;;;;5.77;5.27;;;;;;;;;;5009418;28;20317;-55
2023/09/22 07:51:11;;;;;;;6.00;4.77;;;;;;;;;;5010661;28;20205;-55
2023/09/22 07:53:38;;;;;;;7.10;4.57;;;;;;;;;;5010810;28;20198;-55
2023/09/22 07:56:05;;;;;;;6.67;4.47;;;;;;;;;;5010822;28;20229;-55
2023/09/22 07:58:32;;;;;;;5.97;4.50;;;;;;;;;;5010814;28;20636;-54
2023/09/22 08:01:01;;;;;;;4.90;4.40;;;;;;;;;;5010242;28;20222;-55
2023/09/22 08:03:27;;;;;;;4.60;4.07;;;;;;;;;;5010859;28;20263;-54
2023/09/22 08:05:53;;;;;;;5.47;3.83;;;;;;;;;;5010533;28;20568;-54
2023/09/22 08:08:19;;;;;;;7.63;3.87;;;;;;;;;;5010538;28;20240;-55
2023/09/22 08:10:45;;;;;;;5.10;4.17;;;;;;;;;;5010698;28;20211;-55
2023/09/22 08:13:12;;;;;;;4.47;3.97;;;;;;;;;;5010189;28;20691;-55
2023/09/22 08:15:39;;;;;;;4.60;4.00;;;;;;;;;;5010414;28;20232;-55
2023/09/22 08:18:10;;;;;;;5.03;3.60;;;;;;;;;;5010448;28;20197;-54
2023/09/22 08:20:36;;;;;;;4.23;3.73;;;;;;;;;;5010465;28;20657;-55
2023/09/22 08:23:02;;;;;;;4.50;3.40;;;;;;;;;;5010637;28;20251;-55
2023/09/22 08:25:28;;;;;;;6.13;3.77;;;;;;;;;;5010228;28;20193;-55
2023/09/22 08:27:56;;;;;;;5.37;3.47;;;;;;;;;;5010422;28;20233;-55
2023/09/22 08:30:25;;;;;;;5.10;3.67;;;;;;;;;;5010326;28;20210;-54
2023/09/22 08:32:51;;;;;;;4.03;3.60;;;;;;;;;;5010713;28;20209;-55
2023/09/22 08:35:17;;;;;;;5.40;3.10;;;;;;;;;;5010409;28;20707;-55
2023/09/22 08:37:43;;;;;;;4.83;2.77;;;;;;;;;;5009884;28;20730;-54
2023/09/22 08:40:11;;;;;;;4.60;2.43;;;;;;;;;;5010367;28;20346;-54
2023/09/22 08:42:37;;;;;;;4.83;2.40;;;;;;;;;;5010387;28;20202;-54
2023/09/22 08:45:06;;;;;;;4.83;2.43;;;;;;;;;;5010252;28;20255;-54
2023/09/22 08:47:38;;;;;;;2.90;1.97;;;;;;;;;;5010606;28;20194;-54
2023/09/22 08:50:04;;;;;;;5.43;2.10;;;;;;;;;;5013777;28;20205;-54
2023/09/22 08:52:30;;;;;;;3.27;2.00;;;;;;;;;;5013929;28;20225;-54
2023/09/22 08:54:56;;;;;;;3.83;2.20;;;;;;;;;;5013840;28;20201;-54
2023/09/22 08:57:22;;;;;;;2.23;1.80;;;;;;;;;;5013792;28;20193;-54
2023/09/22 08:59:53;;;;;;;3.90;1.97;;;;;;;;;;5013806;28;20676;-55
2023/09/22 09:02:20;;;;;;;3.30;1.70;;;;;;;;;;5013650;28;20231;-54
2023/09/22 09:04:47;;;;;;;3.53;1.60;;;;;;;;;;5013622;28;20670;-54
2023/09/22 09:07:16;;;;;;;2.70;1.70;;;;;;;;;;5013537;28;20211;-54
2023/09/22 09:09:47;;;;;;;3.63;1.77;;;;;;;;;;5013499;28;20225;-54
2023/09/22 09:12:13;;;;;;;3.50;1.57;;;;;;;;;;5013583;28;20205;-54
2023/09/22 09:14:40;;;;;;;1.83;1.40;;;;;;;;;;5013270;28;20201;-54
2023/09/22 09:17:28;;;;;;;3.23;1.60;;;;;;;;;;5013378;28;20202;-54
2023/09/22 09:19:56;;;;;;;3.10;1.53;;;;;;;;;;5008679;28;20232;-54
2023/09/22 09:22:23;;;;;;;3.13;1.53;;;;;;;;;;5013388;28;20742;-54
2023/09/22 09:24:49;;;;;;;1.47;1.30;;;;;;;;;;5013635;28;20248;-54
2023/09/22 09:27:17;;;;;;;3.47;1.80;;;;;;;;;;5012941;28;20198;-54
2023/09/22 09:29:44;;;;;;;2.43;1.50;;;;;;;;;;5013302;28;20332;-54
2023/09/22 09:32:10;;;;;;;3.17;1.60;;;;;;;;;;5012813;28;20375;-54
2023/09/22 09:34:40;;;;;;;2.70;1.60;;;;;;;;;;5013121;28;20606;-54
2023/09/22 09:37:13;;;;;;;3.77;1.37;;;;;;;;;;5013131;28;20218;-54
2023/09/22 09:39:43;;;;;;;3.70;1.67;;;;;;;;;;5008208;28;20227;-54
2023/09/22 09:42:10;;;;;;;4.57;1.70;;;;;;;;;;5011210;28;20213;-54
2023/09/22 09:44:37;;;;;;;1.93;1.40;;;;;;;;;;5011389;28;20202;-58
2023/09/22 09:47:03;;;;;;;2.70;1.70;;;;;;;;;;5013161;28;20213;-56
2023/09/22 09:49:30;;;;;;;6.07;1.53;;;;;;;;;;5013093;28;20229;-58
2023/09/22 09:51:57;;;;;;;2.77;1.63;;;;;;;;;;5013048;28;20193;-56
2023/09/22 09:54:25;;;;;;;1.57;1.47;;;;;;;;;;5011351;28;20247;-56
2023/09/22 09:56:52;;;;;;;3.43;1.40;;;;;;;;;;5013417;28;20704;-57
2023/09/22 09:59:18;;;;;;;2.10;1.53;;;;;;;;;;5012734;28;20202;-57
2023/09/22 10:01:44;;;;;;;2.60;1.37;;;;;;;;;;5012969;28;20714;-56
2023/09/22 10:04:11;;;;;;;2.23;1.30;;;;;;;;;;5012771;28;20743;-56
2023/09/22 10:06:38;;;;;;;2.17;1.57;;;;;;;;;;5013186;28;20201;-56
2023/09/22 10:09:10;;;;;;;1.60;1.30;;;;;;;;;;5012994;28;20658;-56
2023/09/22 10:11:37;;;;;;;6.07;1.60;;;;;;;;;;5013033;28;20664;-56
2023/09/22 10:14:04;;;;;;;3.03;1.40;;;;;;;;;;5012843;28;20214;-57
2023/09/22 10:16:30;;;;;;;2.73;1.60;;;;;;;;;;5012866;28;20677;-57
2023/09/22 10:18:59;;;;;;;3.33;1.40;;;;;;;;;;5012975;28;20280;-57
2023/09/22 10:21:49;;;;;;;1.97;1.40;;;;;;;;;;5012782;28;20280;-57
2023/09/22 10:24:20;;;;;;;1.50;1.17;;;;;;;;;;5012775;28;20210;-55
2023/09/22 10:27:07;;;;;;;2.53;1.47;;;;;;;;;;5012795;28;20204;-55
2023/09/22 10:29:42;;;;;;;2.73;1.37;;;;;;;;;;5004395;28;20244;-55
2023/09/22 10:32:27;;;;;;;1.50;1.30;;;;;;;;;;5012545;28;20207;-56
2023/09/22 10:34:53;;;;;;;1.83;1.27;;;;;;;;;;5012484;28;20232;-56
2023/09/22 10:37:20;;;;;;;2.03;1.50;;;;;;;;;;5012304;28;20226;-54
2023/09/22 10:39:51;;;;;;;1.70;1.10;;;;;;;;;;5012324;28;20612;-56
2023/09/22 10:42:17;;;;;;;5.00;1.20;;;;;;;;;;5012227;28;20212;-54
2023/09/22 10:45:00;;;;;;;2.47;1.30;;;;;;;;;;5010293;28;20208;-53
2023/09/22 10:47:40;;;;;;;3.83;1.63;;;;;;;;;;5011757;28;20239;-54
2023/09/22 10:50:09;;;;;;;2.03;1.20;;;;;;;;;;5011988;28;20208;-54
2023/09/22 10:52:36;;;;;;;1.73;1.20;;;;;;;;;;5012074;28;20225;-54
2023/09/22 10:55:05;;;;;;;2.20;1.27;;;;;;;;;;5011964;28;20535;-54
2023/09/22 10:57:31;;;;;;;2.00;1.30;;;;;;;;;;5011971;28;20708;-56
2023/09/22 10:59:57;;;;;;;3.10;1.30;;;;;;;;;;5011576;28;20248;-55
2023/09/22 11:02:26;;;;;;;3.80;1.43;;;;;;;;;;5011622;28;20197;-53
2023/09/22 11:04:55;;;;;;;1.87;1.30;;;;;;;;;;5011529;28;20208;-55
2023/09/22 11:07:31;;;;;;;4.87;1.30;;;;;;;;;;5011344;28;20206;-53
2023/09/22 11:09:57;;;;;;;4.57;1.40;;;;;;;;;;5011311;28;20599;-54
2023/09/22 11:12:23;;;;;;;2.70;1.10;;;;;;;;;;5010308;28;20788;-54
2023/09/22 11:14:49;;;;;;;2.63;1.20;;;;;;;;;;5011359;28;20306;-54
2023/09/22 11:17:15;;;;;;;1.50;1.07;;;;;;;;;;5011176;28;20322;-54
2023/09/22 11:19:51;;;;;;;2.40;1.30;;;;;;;;;;5011145;28;20694;-54
2023/09/22 11:22:17;;;;;;;1.47;1.20;;;;;;;;;;5010984;28;20263;-54
2023/09/22 11:24:45;;;;;;;2.37;1.00;;;;;;;;;;5011029;28;20232;-53
2023/09/22 11:27:11;;;;;;;3.13;1.10;;;;;;;;;;5011413;28;20201;-54
2023/09/22 11:29:39;;;;;;;3.60;1.00;;;;;;;;;;5011221;28;20361;-54
2023/09/22 11:32:08;;;;;;;1.53;1.00;;;;;;;;;;5011427;28;20204;-54
2023/09/22 11:34:44;;;;;;;1.23;0.87;;;;;;;;;;5011448;28;20659;-54
2023/09/22 11:37:12;;;;;;;1.37;1.20;;;;;;;;;;5011451;28;20242;-54
2023/09/22 11:39:38;;;;;;;1.90;1.20;;;;;;;;;;5011572;28;20196;-54
2023/09/22 11:42:04;;;;;;;2.30;1.13;;;;;;;;;;5011328;28;20627;-54
2023/09/22 11:44:30;;;;;;;2.67;1.30;;;;;;;;;;5011499;28;20285;-54
2023/09/22 11:46:56;;;;;;;2.17;1.10;;;;;;;;;;5011182;28;20661;-54
2023/09/22 11:49:22;;;;;;;2.97;1.17;;;;;;;;;;5011113;28;20239;-54
2023/09/22 11:51:50;;;;;;;3.03;1.23;;;;;;;;;;5011401;28;20233;-54
2023/09/22 11:54:19;;;;;;;2.20;1.20;;;;;;;;;;5011236;28;20197;-54
2023/09/22 11:56:46;;;;;;;1.67;1.10;;;;;;;;;;5011397;28;20308;-54
2023/09/22 11:59:12;;;;;;;1.10;0.90;;;;;;;;;;5011051;28;20208;-54
2023/09/22 12:01:40;;;;;;;3.27;1.23;;;;;;;;;;5011324;28;20197;-54
2023/09/22 12:04:06;;;;;;;1.57;1.20;;;;;;;;;;5011099;28;20249;-54
2023/09/22 12:06:32;;;;;;;1.73;1.00;;;;;;;;;;5011317;28;20240;-54
2023/09/22 12:08:58;;;;;;;1.27;1.00;;;;;;;;;;5010878;28;20230;-54
2023/09/22 12:11:26;;;;;;;3.03;1.10;;;;;;;;;;5010966;28;20208;-54
2023/09/22 12:13:52;;;;;;;1.97;1.17;;;;;;;;;;5011326;28;20205;-54
2023/09/22 12:16:18;;;;;;;1.30;1.00;;;;;;;;;;5011001;28;20205;-54
2023/09/22 12:18:44;;;;;;;1.37;1.07;;;;;;;;;;5010943;28;20285;-55
2023/09/22 12:21:10;;;;;;;1.97;1.17;;;;;;;;;;5009167;28;20300;-54
2023/09/22 12:23:36;;;;;;;2.70;1.10;;;;;;;;;;5012494;28;20316;-54
2023/09/22 12:26:02;;;;;;;2.70;1.27;;;;;;;;;;5014396;28;20265;-55
2023/09/22 12:28:30;;;;;;;1.57;1.00;;;;;;;;;;5014257;28;20237;-55
2023/09/22 12:30:56;;;;;;;5.97;1.47;;;;;;;;;;5014462;28;20228;-54
2023/09/22 12:33:22;;;;;;;1.67;1.17;;;;;;;;;;5014227;28;20731;-55
2023/09/22 12:35:50;;;;;;;1.87;1.10;;;;;;;;;;5014358;28;20304;-55
2023/09/22 12:38:16;;;;;;;3.30;1.17;;;;;;;;;;5013982;28;20762;-54
2023/09/22 12:40:42;;;;;;;0.83;0.83;;;;;;;;;;5014252;28;20275;-55
2023/09/22 12:43:09;;;;;;;1.53;1.00;;;;;;;;;;5013912;28;20198;-54
2023/09/22 12:45:36;;;;;;;2.93;1.30;;;;;;;;;;5014112;28;20197;-54
2023/09/22 12:48:03;;;;;;;2.17;1.30;;;;;;;;;;5014044;28;20229;-54
2023/09/22 12:50:29;;;;;;;1.30;1.20;;;;;;;;;;5013920;28;20208;-54
2023/09/22 12:52:55;;;;;;;3.17;1.47;;;;;;;;;;5013980;28;20194;-54
2023/09/22 12:55:21;;;;;;;3.07;1.20;;;;;;;;;;5013906;28;20551;-55
2023/09/22 12:57:47;;;;;;;1.53;1.30;;;;;;;;;;5014389;28;20213;-55
2023/09/22 13:00:15;;;;;;;1.50;1.20;;;;;;;;;;5013681;28;20209;-55
2023/09/22 13:02:42;;;;;;;3.17;1.40;;;;;;;;;;5014008;28;20400;-54
2023/09/22 13:05:09;;;;;;;2.30;1.23;;;;;;;;;;5014331;28;20224;-55
2023/09/22 13:07:35;;;;;;;2.40;1.20;;;;;;;;;;5013177;28;20650;-54
2023/09/22 13:10:03;;;;;;;1.70;1.20;;;;;;;;;;5014163;28;20309;-54
2023/09/22 13:12:29;;;;;;;1.87;1.07;;;;;;;;;;5014313;28;20205;-54
2023/09/22 13:14:55;;;;;;;4.70;1.27;;;;;;;;;;5014287;28;20204;-55
2023/09/22 13:17:21;;;;;;;5.33;1.27;;;;;;;;;;5014063;28;20575;-54
2023/09/22 13:19:49;;;;;;;1.53;1.20;;;;;;;;;;5014123;28;20193;-54
2023/09/22 13:22:16;;;;;;;1.90;1.00;;;;;;;;;;5013794;28;20229;-54
2023/09/22 13:24:43;;;;;;;2.53;1.00;;;;;;;;;;5013894;28;20256;-54
2023/09/22 13:27:09;;;;;;;1.23;1.13;;;;;;;;;;5013651;28;20200;-54
2023/09/22 13:29:35;;;;;;;4.67;1.30;;;;;;;;;;5013655;28;20229;-54
2023/09/22 13:32:01;;;;;;;3.63;1.00;;;;;;;;;;5013714;28;20253;-54
2023/09/22 13:34:29;;;;;;;3.13;1.10;;;;;;;;;;5012529;28;20200;-54
2023/09/22 13:36:56;;;;;;;1.33;1.23;;;;;;;;;;5013473;28;20759;-54
2023/09/22 13:39:23;;;;;;;1.20;1.10;;;;;;;;;;5013422;28;20261;-54
2023/09/22 13:41:49;;;;;;;2.50;0.93;;;;;;;;;;5013733;28;20563;-54
2023/09/22 13:44:15;;;;;;;1.70;1.10;;;;;;;;;;5013247;28;20205;-54
2023/09/22 13:46:43;;;;;;;1.57;1.07;;;;;;;;;;5013191;28;20293;-54
2023/09/22 13:49:09;;;;;;;2.53;1.20;;;;;;;;;;5012810;28;20679;-55
2023/09/22 13:51:36;;;;;;;1.37;0.97;;;;;;;;;;5013077;28;20286;-55
2023/09/22 13:54:04;;;;;;;1.20;1.10;;;;;;;;;;5013151;28;20284;-55
2023/09/22 13:56:30;;;;;;;1.63;1.10;;;;;;;;;;5012588;28;20208;-55
2023/09/22 13:58:57;;;;;;;1.00;0.90;;;;;;;;;;5012498;28;20263;-54
2023/09/22 14:01:23;;;;;;;1.87;1.30;;;;;;;;;;5012238;28;20623;-54
2023/09/22 14:03:49;;;;;;;2.43;1.00;;;;;;;;;;5012623;28;20586;-54
2023/09/22 14:06:16;;;;;;;4.07;1.27;;;;;;;;;;5012314;28;20193;-54
2023/09/22 14:08:42;;;;;;;1.90;1.20;;;;;;;;;;5012031;28;20221;-54
2023/09/22 14:11:10;;;;;;;1.00;0.90;;;;;;;;;;5012152;28;20196;-54
2023/09/22 14:13:36;;;;;;;1.10;1.00;;;;;;;;;;5012286;28;20217;-54
2023/09/22 14:16:03;;;;;;;1.07;0.97;;;;;;;;;;5012255;28;20239;-54
2023/09/22 14:18:29;;;;;;;1.67;1.10;;;;;;;;;;5011955;28;20186;-54
2023/09/22 14:20:55;;;;;;;1.20;1.10;;;;;;;;;;5011870;28;20632;-54
2023/09/22 14:23:21;;;;;;;1.10;1.00;;;;;;;;;;5011783;28;20743;-54
2023/09/22 14:25:48;;;;;;;1.30;1.20;;;;;;;;;;5012374;28;20294;-54
2023/09/22 14:28:15;;;;;;;1.60;1.10;;;;;;;;;;5009279;28;20604;-54
2023/09/22 14:30:41;;;;;;;1.47;1.20;;;;;;;;;;5011893;28;20671;-54
2023/09/22 14:33:07;;;;;;;2.77;1.20;;;;;;;;;;5011820;28;20197;-54
2023/09/22 14:35:33;;;;;;;1.40;0.90;;;;;;;;;;5009458;28;20673;-54
2023/09/22 14:37:59;;;;;;;2.33;1.53;;;;;;;;;;5011641;28;20264;-54
2023/09/22 14:40:25;;;;;;;1.50;1.17;;;;;;;;;;5011552;28;20271;-54
2023/09/22 14:42:53;;;;;;;2.40;1.37;;;;;;;;;;5011913;28;20202;-54